Time;durP1;ratioP1;P1;durP2;ratioP2;P2;SDS_P1;SDS_P2;PMS_P1;PMS_P2;Temp;Humidity;BMP_temperature;BMP_pressure;BME280_temperature;BME280_humidity;BME280_pressure;Samples;Min_cycle;Max_cycle;Signal;HPM_P1;HPM_P2
2022/11/15 00:01:19;;;;;;;39.70;28.40;;;8.00;99.90;;;;;;5098184;28;20449;-67
2022/11/15 00:03:47;;;;;;;39.10;27.47;;;7.90;99.90;;;;;;5098125;28;20453;-67
2022/11/15 00:06:14;;;;;;;41.50;27.43;;;7.80;99.90;;;;;;5098565;28;20518;-67
2022/11/15 00:08:41;;;;;;;46.17;27.50;;;7.80;99.90;;;;;;5098024;28;20564;-68
2022/11/15 00:11:10;;;;;;;39.23;27.30;;;7.80;99.90;;;;;;5098303;28;20457;-67
2022/11/15 00:13:37;;;;;;;40.33;28.53;;;7.70;99.90;;;;;;5097633;28;20489;-66
2022/11/15 00:16:04;;;;;;;42.63;29.50;;;7.70;99.90;;;;;;5098146;28;20826;-67
2022/11/15 00:18:33;;;;;;;40.83;27.13;;;7.60;99.90;;;;;;5096840;28;20540;-66
2022/11/15 00:21:05;;;;;;;42.10;28.20;;;7.60;99.90;;;;;;5096483;28;20562;-67
2022/11/15 00:23:31;;;;;;;43.83;29.27;;;7.60;99.90;;;;;;5097767;28;20442;-67
2022/11/15 00:25:59;;;;;;;40.13;30.10;;;7.50;99.90;;;;;;5098144;28;20477;-67
2022/11/15 00:28:26;;;;;;;49.10;29.13;;;7.50;99.90;;;;;;5098799;28;20560;-67
2022/11/15 00:30:54;;;;;;;44.80;30.67;;;7.50;99.90;;;;;;5096323;28;20518;-67
2022/11/15 00:33:21;;;;;;;48.37;30.67;;;7.50;99.90;;;;;;5096173;28;20457;-67
2022/11/15 00:35:49;;;;;;;44.50;29.63;;;7.50;99.90;;;;;;5097068;28;20453;-67
2022/11/15 00:38:16;;;;;;;41.30;28.93;;;7.50;99.90;;;;;;5096201;28;20906;-67
2022/11/15 00:40:43;;;;;;;41.47;29.30;;;7.40;99.90;;;;;;5096666;28;20932;-67
2022/11/15 00:43:09;;;;;;;45.30;29.70;;;7.40;99.90;;;;;;5097115;28;20496;-67
2022/11/15 00:45:36;;;;;;;43.10;30.27;;;7.30;99.90;;;;;;5096328;28;20492;-67
2022/11/15 00:48:04;;;;;;;46.00;31.23;;;7.30;99.90;;;;;;5096488;28;20545;-68
2022/11/15 00:50:30;;;;;;;46.33;30.77;;;7.30;99.90;;;;;;5096283;28;20483;-67
2022/11/15 00:52:59;;;;;;;44.90;31.17;;;7.20;99.90;;;;;;5096730;28;20453;-68
2022/11/15 00:55:26;;;;;;;44.87;29.40;;;7.20;99.90;;;;;;5096428;28;20787;-65
2022/11/15 00:57:52;;;;;;;45.57;30.10;;;7.20;99.90;;;;;;5096294;28;20523;-67
2022/11/15 01:00:19;;;;;;;41.10;27.60;;;7.10;99.90;;;;;;5096231;28;20866;-68
2022/11/15 01:02:46;;;;;;;49.70;29.47;;;7.10;99.90;;;;;;5096781;28;20462;-66
2022/11/15 01:05:13;;;;;;;41.60;30.20;;;7.10;99.90;;;;;;5096468;28;20529;-68
2022/11/15 01:07:40;;;;;;;43.93;28.73;;;7.10;99.90;;;;;;5096250;28;20568;-68
2022/11/15 01:10:10;;;;;;;47.50;30.37;;;7.10;99.90;;;;;;5096020;28;20488;-67
2022/11/15 01:12:37;;;;;;;45.10;31.17;;;7.10;99.90;;;;;;5096575;28;20581;-67
2022/11/15 01:15:05;;;;;;;41.87;29.47;;;7.10;99.90;;;;;;5096149;28;20548;-67
2022/11/15 01:17:32;;;;;;;44.33;29.70;;;7.10;99.90;;;;;;5096398;28;20453;-68
2022/11/15 01:19:59;;;;;;;46.27;30.40;;;7.10;99.90;;;;;;5096042;28;20462;-67
2022/11/15 01:22:25;;;;;;;45.10;30.40;;;7.00;99.90;;;;;;5095963;28;20548;-66
2022/11/15 01:24:52;;;;;;;48.07;32.47;;;7.00;99.90;;;;;;5095865;28;20514;-67
2022/11/15 01:27:21;;;;;;;44.93;29.47;;;7.00;99.90;;;;;;5095726;28;20558;-67
2022/11/15 01:29:48;;;;;;;43.90;28.03;;;7.00;99.90;;;;;;5095451;28;20536;-66
2022/11/15 01:32:15;;;;;;;47.87;31.10;;;7.00;99.90;;;;;;5095678;28;20489;-68
2022/11/15 01:34:42;;;;;;;39.67;27.53;;;7.00;99.90;;;;;;5095769;28;20536;-68
2022/11/15 01:37:08;;;;;;;45.90;29.53;;;6.90;99.90;;;;;;5095902;28;20540;-67
2022/11/15 01:39:35;;;;;;;47.30;30.90;;;6.90;99.90;;;;;;5097012;28;20545;-67
2022/11/15 01:42:02;;;;;;;40.90;28.83;;;6.90;99.90;;;;;;5097188;28;20454;-68
2022/11/15 01:44:41;;;;;;;47.37;31.27;;;6.90;99.90;;;;;;5096525;28;20847;-66
2022/11/15 01:47:12;;;;;;;45.20;30.30;;;6.90;99.90;;;;;;5096495;28;20477;-69
2022/11/15 01:49:42;;;;;;;41.50;27.90;;;6.80;99.90;;;;;;5100434;28;20437;-67
2022/11/15 01:52:14;;;;;;;44.53;30.43;;;6.80;99.90;;;;;;5101223;28;20512;-67
2022/11/15 01:54:41;;;;;;;45.73;28.93;;;6.80;99.90;;;;;;5099826;28;20775;-66
2022/11/15 01:57:10;;;;;;;44.07;29.47;;;6.80;99.90;;;;;;5100092;28;20457;-66
2022/11/15 01:59:40;;;;;;;46.87;30.27;;;6.80;99.90;;;;;;5100067;28;20518;-66
2022/11/15 02:02:08;;;;;;;45.20;30.37;;;6.80;99.90;;;;;;5099885;28;20471;-68
2022/11/15 02:04:40;;;;;;;49.43;31.33;;;6.90;99.90;;;;;;5099584;28;20500;-68
2022/11/15 02:07:09;;;;;;;46.67;30.60;;;6.80;99.90;;;;;;5099703;28;20438;-67
2022/11/15 02:09:38;;;;;;;43.50;28.80;;;6.80;99.90;;;;;;5099047;28;20457;-68
2022/11/15 02:12:06;;;;;;;44.00;28.70;;;6.80;99.90;;;;;;5099675;28;20456;-67
2022/11/15 02:14:34;;;;;;;52.00;30.87;;;6.80;99.90;;;;;;5099436;28;20533;-66
2022/11/15 02:17:16;;;;;;;46.67;32.97;;;6.80;99.90;;;;;;5099435;28;20545;-66
2022/11/15 02:20:10;;;;;;;45.43;29.63;;;6.70;99.90;;;;;;5100111;28;20441;-67
2022/11/15 02:22:51;;;;;;;44.43;31.17;;;6.70;99.90;;;;;;5086707;28;20540;-67
2022/11/15 02:25:38;;;;;;;47.70;31.83;;;6.70;99.90;;;;;;5098657;28;20512;-67
2022/11/15 02:28:29;;;;;;;50.17;31.80;;;6.70;99.90;;;;;;5098590;28;20532;-67
2022/11/15 02:31:02;;;;;;;42.83;29.37;;;6.70;99.90;;;;;;5098763;28;20520;-67
2022/11/15 02:33:37;;;;;;;44.20;29.40;;;6.70;99.90;;;;;;5098773;28;20921;-67
2022/11/15 02:36:10;;;;;;;46.83;30.47;;;6.70;99.90;;;;;;5098349;28;20524;-67
2022/11/15 02:38:45;;;;;;;41.00;28.83;;;6.70;99.90;;;;;;5098878;28;20525;-68
2022/11/15 02:41:16;;;;;;;47.00;29.63;;;6.70;99.90;;;;;;5098598;28;20499;-67
2022/11/15 02:43:58;;;;;;;49.73;31.47;;;6.70;99.90;;;;;;5099102;28;20501;-68
2022/11/15 02:49:18;;;;;;;48.60;30.30;;;6.80;99.90;;;;;;5098008;28;20460;-68
2022/11/15 02:51:48;;;;;;;48.60;30.80;;;6.80;99.90;;;;;;5098333;28;20834;-66
2022/11/15 02:54:18;;;;;;;47.47;30.83;;;6.80;99.90;;;;;;5098651;28;20520;-65
2022/11/15 02:56:46;;;;;;;46.60;28.50;;;6.80;99.90;;;;;;5098607;28;20516;-68
2022/11/15 02:59:36;;;;;;;46.27;28.97;;;6.80;99.90;;;;;;5098303;28;20461;-67
2022/11/15 03:02:19;;;;;;;45.40;29.80;;;6.80;99.90;;;;;;5098950;28;20502;-68
2022/11/15 03:04:53;;;;;;;41.60;27.73;;;6.80;99.90;;;;;;5098708;28;20442;-67
2022/11/15 03:07:28;;;;;;;45.47;30.70;;;6.80;99.90;;;;;;5099208;28;20524;-67
2022/11/15 03:10:03;;;;;;;46.47;28.27;;;6.80;99.90;;;;;;5098762;28;20430;-67
2022/11/15 03:12:37;;;;;;;43.10;28.17;;;6.80;99.90;;;;;;5097926;28;20437;-67
2022/11/15 03:15:09;;;;;;;48.50;30.30;;;6.80;99.90;;;;;;5098196;28;20484;-67
2022/11/15 03:17:41;;;;;;;48.20;30.30;;;6.80;99.90;;;;;;5097859;28;20486;-67
2022/11/15 03:20:11;;;;;;;47.40;30.50;;;6.90;99.90;;;;;;5097491;28;20477;-67
2022/11/15 03:22:42;;;;;;;49.70;29.73;;;6.90;99.90;;;;;;5097964;28;20496;-67
2022/11/15 03:25:15;;;;;;;40.50;27.70;;;6.80;99.90;;;;;;5098025;28;20568;-68
2022/11/15 03:27:47;;;;;;;45.97;30.30;;;6.90;99.90;;;;;;5098202;28;20521;-66
2022/11/15 03:30:15;;;;;;;43.23;29.57;;;6.90;99.90;;;;;;5097307;28;20468;-66
2022/11/15 03:32:48;;;;;;;41.57;28.80;;;6.90;99.90;;;;;;5097871;28;20534;-68
2022/11/15 03:35:18;;;;;;;41.47;28.80;;;6.90;99.90;;;;;;5097987;28;20538;-67
2022/11/15 03:37:51;;;;;;;44.23;29.60;;;6.90;99.90;;;;;;5099626;28;20437;-67
2022/11/15 03:40:20;;;;;;;41.73;28.97;;;6.90;99.90;;;;;;5101097;28;20545;-67
2022/11/15 03:42:55;;;;;;;43.50;29.60;;;6.90;99.90;;;;;;5100246;28;20483;-67
2022/11/15 03:45:28;;;;;;;42.07;28.73;;;6.90;99.90;;;;;;5099973;28;20827;-67
2022/11/15 03:48:02;;;;;;;41.70;28.00;;;7.00;99.90;;;;;;5098324;28;20444;-67
2022/11/15 03:50:30;;;;;;;48.37;30.70;;;6.90;99.90;;;;;;5097642;28;20537;-67
2022/11/15 03:52:58;;;;;;;40.93;29.07;;;6.90;99.90;;;;;;5097815;28;20927;-67
2022/11/15 03:55:25;;;;;;;44.53;30.03;;;6.90;99.90;;;;;;5097557;28;20461;-69
2022/11/15 03:58:01;;;;;;;42.13;28.67;;;7.00;99.90;;;;;;5097733;28;20481;-67
2022/11/15 04:00:28;;;;;;;44.30;27.40;;;7.00;99.90;;;;;;5097018;28;20442;-66
2022/11/15 04:02:56;;;;;;;40.27;26.83;;;7.00;99.90;;;;;;5097548;28;20548;-67
2022/11/15 04:05:23;;;;;;;44.70;30.57;;;7.00;99.90;;;;;;5097541;28;20510;-68
2022/11/15 04:07:50;;;;;;;41.30;28.03;;;7.00;99.90;;;;;;5096659;28;20846;-67
2022/11/15 04:10:17;;;;;;;45.80;31.77;;;7.00;99.90;;;;;;5097251;28;20541;-67
2022/11/15 04:12:47;;;;;;;44.83;29.10;;;6.90;99.90;;;;;;5097181;28;20695;-67
2022/11/15 04:15:17;;;;;;;45.67;28.83;;;6.90;99.90;;;;;;5097100;28;20496;-67
2022/11/15 04:17:45;;;;;;;42.60;27.93;;;6.90;99.90;;;;;;5097254;28;20823;-67
2022/11/15 04:25:48;;;;;;;43.87;28.97;;;6.90;99.90;;;;;;5096627;28;20476;-68
2022/11/15 04:28:15;;;;;;;46.10;27.63;;;6.90;99.90;;;;;;5096198;28;20521;-68
2022/11/15 04:30:42;;;;;;;41.47;27.53;;;6.80;99.90;;;;;;5096443;28;20855;-68
2022/11/15 04:33:09;;;;;;;44.37;28.70;;;6.90;99.90;;;;;;5096337;28;20495;-68
2022/11/15 04:35:37;;;;;;;40.60;29.00;;;6.90;99.90;;;;;;5096504;28;20498;-66
2022/11/15 04:38:05;;;;;;;43.53;28.37;;;6.90;99.90;;;;;;5095959;28;20457;-67
2022/11/15 04:40:32;;;;;;;41.23;28.30;;;6.90;99.90;;;;;;5096729;28;20457;-66
2022/11/15 04:42:59;;;;;;;42.87;26.20;;;6.90;99.90;;;;;;5096209;28;20457;-66
2022/11/15 04:45:26;;;;;;;41.40;27.47;;;6.90;99.90;;;;;;5096022;28;20461;-68
2022/11/15 04:47:53;;;;;;;43.80;28.17;;;6.90;99.90;;;;;;5096942;28;20465;-68
2022/11/15 04:50:20;;;;;;;42.07;29.10;;;7.00;99.90;;;;;;5097401;28;20969;-68
2022/11/15 04:52:53;;;;;;;45.77;29.37;;;6.90;99.90;;;;;;5096720;28;20600;-68
2022/11/15 04:55:20;;;;;;;41.73;29.03;;;7.00;99.90;;;;;;5096850;28;20513;-67
2022/11/15 04:57:47;;;;;;;41.77;28.37;;;7.00;99.90;;;;;;5096962;28;20532;-67
2022/11/15 05:00:17;;;;;;;46.50;28.10;;;7.00;99.90;;;;;;5097491;28;20837;-67
2022/11/15 05:05:29;;;;;;;40.77;26.90;;;7.00;99.90;;;;;;5096849;28;20421;-66
2022/11/15 05:07:57;;;;;;;43.27;27.37;;;7.00;99.90;;;;;;5096756;28;20449;-67
2022/11/15 05:10:24;;;;;;;40.33;28.17;;;7.00;99.90;;;;;;5097566;28;20545;-67
2022/11/15 05:12:51;;;;;;;39.80;26.80;;;7.00;99.90;;;;;;5097039;28;20454;-66
2022/11/15 05:15:18;;;;;;;41.73;27.63;;;7.00;99.90;;;;;;5096500;28;20453;-67
2022/11/15 05:17:45;;;;;;;37.20;26.43;;;7.10;99.90;;;;;;5096366;28;20907;-67
2022/11/15 05:20:12;;;;;;;41.37;26.57;;;7.00;99.90;;;;;;5097213;28;20457;-67
2022/11/15 05:22:40;;;;;;;40.60;26.90;;;7.00;99.90;;;;;;5098293;28;20469;-66
2022/11/15 05:25:08;;;;;;;40.63;26.00;;;7.00;99.90;;;;;;5101723;28;20481;-67
2022/11/15 05:27:36;;;;;;;41.20;27.50;;;7.00;99.90;;;;;;5102189;28;20549;-67
2022/11/15 05:30:03;;;;;;;42.80;28.17;;;6.90;99.90;;;;;;5101031;28;20477;-68
2022/11/15 05:32:30;;;;;;;40.90;27.20;;;7.00;99.90;;;;;;5100735;28;20510;-67
2022/11/15 05:34:57;;;;;;;38.57;26.70;;;6.90;99.90;;;;;;5100659;28;20518;-67
2022/11/15 05:37:24;;;;;;;41.97;27.97;;;6.90;99.90;;;;;;5100555;28;20848;-67
2022/11/15 05:39:51;;;;;;;42.87;26.63;;;7.00;99.90;;;;;;5100762;28;20494;-66
2022/11/15 05:42:19;;;;;;;42.67;27.40;;;6.90;99.90;;;;;;5101393;28;20913;-67
2022/11/15 05:44:50;;;;;;;36.60;26.40;;;6.90;99.90;;;;;;5100666;28;20490;-67
2022/11/15 05:47:21;;;;;;;45.73;27.47;;;7.00;99.90;;;;;;5100162;28;20485;-67
2022/11/15 05:49:50;;;;;;;39.27;26.77;;;7.00;99.90;;;;;;5100360;28;20805;-67
2022/11/15 05:52:23;;;;;;;43.27;27.40;;;7.00;99.90;;;;;;5099716;28;20515;-67
2022/11/15 05:54:51;;;;;;;41.20;27.53;;;7.00;99.90;;;;;;5099485;28;20434;-67
2022/11/15 05:57:19;;;;;;;39.00;27.40;;;7.00;99.90;;;;;;5099617;28;20540;-67
2022/11/15 05:59:46;;;;;;;41.47;28.17;;;7.00;99.90;;;;;;5099947;28;20518;-67
2022/11/15 06:02:13;;;;;;;41.50;28.00;;;7.10;99.90;;;;;;5099715;28;20515;-67
2022/11/15 06:04:40;;;;;;;42.70;26.70;;;7.10;99.90;;;;;;5099708;28;20544;-67
2022/11/15 06:07:07;;;;;;;41.30;27.33;;;7.20;99.90;;;;;;5099745;28;20540;-67
2022/11/15 06:09:34;;;;;;;40.27;27.27;;;7.20;99.90;;;;;;5099278;28;20854;-67
2022/11/15 06:12:01;;;;;;;44.53;27.73;;;7.20;99.90;;;;;;5099380;28;20900;-67
2022/11/15 06:14:29;;;;;;;37.80;26.67;;;7.10;99.90;;;;;;5099494;28;20540;-66
2022/11/15 06:16:56;;;;;;;39.90;27.70;;;7.10;99.90;;;;;;5099194;28;20471;-67
2022/11/15 06:19:23;;;;;;;39.10;27.00;;;7.10;99.90;;;;;;5099468;28;20499;-68
2022/11/15 06:21:50;;;;;;;38.77;25.93;;;7.10;99.90;;;;;;5099065;28;20516;-67
2022/11/15 06:24:17;;;;;;;39.80;27.37;;;7.10;99.90;;;;;;5098432;28;20540;-67
2022/11/15 06:26:44;;;;;;;39.93;27.60;;;7.10;99.90;;;;;;5098780;28;20565;-66
2022/11/15 06:29:11;;;;;;;37.80;26.10;;;7.00;99.90;;;;;;5098498;28;20473;-65
2022/11/15 06:31:39;;;;;;;38.70;28.47;;;7.00;99.90;;;;;;5098678;28;20458;-68
2022/11/15 06:34:06;;;;;;;40.57;27.20;;;7.00;99.90;;;;;;5098256;28;20508;-66
2022/11/15 06:36:35;;;;;;;43.43;27.80;;;7.00;99.90;;;;;;5098415;28;20453;-66
2022/11/15 06:39:02;;;;;;;39.70;27.70;;;7.00;99.90;;;;;;5099460;28;20480;-67
2022/11/15 06:41:29;;;;;;;42.53;29.30;;;7.00;99.90;;;;;;5099139;28;20906;-67
2022/11/15 06:43:57;;;;;;;45.27;28.67;;;7.00;99.90;;;;;;5098625;28;20854;-68
2022/11/15 06:46:24;;;;;;;45.03;29.83;;;6.90;99.90;;;;;;5098720;28;20864;-66
2022/11/15 06:48:53;;;;;;;45.97;28.33;;;6.90;99.90;;;;;;5098914;28;20543;-67
2022/11/15 06:51:20;;;;;;;40.60;27.10;;;6.90;99.90;;;;;;5099148;28;20480;-67
2022/11/15 06:53:47;;;;;;;43.87;27.50;;;6.80;99.90;;;;;;5098039;28;20551;-67
2022/11/15 06:56:14;;;;;;;52.70;32.53;;;6.80;99.90;;;;;;5097959;28;20532;-66
2022/11/15 06:58:41;;;;;;;45.37;30.73;;;6.80;99.90;;;;;;5097462;28;20966;-67
2022/11/15 07:01:12;;;;;;;39.73;28.20;;;6.80;99.90;;;;;;5097803;28;20481;-68
2022/11/15 07:03:51;;;;;;;46.13;29.80;;;6.90;99.90;;;;;;5098703;28;20479;-67
2022/11/15 07:06:42;;;;;;;46.37;31.13;;;6.90;99.90;;;;;;5098323;28;20983;-68
2022/11/15 07:09:09;;;;;;;51.03;31.93;;;7.20;99.90;;;;;;5097484;28;20470;-67
2022/11/15 07:11:36;;;;;;;47.83;31.07;;;7.40;99.90;;;;;;5097091;28;20481;-67
2022/11/15 07:14:02;;;;;;;44.47;28.77;;;7.60;99.90;;;;;;5097177;28;20457;-66
2022/11/15 07:16:29;;;;;;;40.03;28.50;;;7.60;99.90;;;;;;5097436;28;20496;-68
2022/11/15 07:18:56;;;;;;;39.73;28.03;;;7.60;99.90;;;;;;5097142;28;20494;-68
2022/11/15 07:21:25;;;;;;;37.07;26.70;;;7.50;99.90;;;;;;5096758;28;20500;-67
2022/11/15 07:23:52;;;;;;;36.97;27.07;;;7.40;99.90;;;;;;5097251;28;20481;-67
2022/11/15 07:26:18;;;;;;;44.07;28.30;;;7.40;99.90;;;;;;5096747;28;20566;-67
2022/11/15 07:28:45;;;;;;;38.03;27.70;;;7.40;99.90;;;;;;5096267;28;20454;-65
2022/11/15 07:31:12;;;;;;;42.53;27.40;;;7.30;99.90;;;;;;5097137;28;20492;-66
2022/11/15 07:33:39;;;;;;;39.77;26.90;;;7.40;99.90;;;;;;5097041;28;20489;-66
2022/11/15 07:36:08;;;;;;;41.63;26.93;;;7.40;99.90;;;;;;5096788;28;20828;-67
2022/11/15 07:38:37;;;;;;;36.27;26.80;;;7.40;99.90;;;;;;5096771;28;21012;-66
2022/11/15 07:41:05;;;;;;;39.97;27.17;;;7.40;99.90;;;;;;5096693;28;20510;-67
2022/11/15 07:43:33;;;;;;;38.80;28.10;;;7.50;99.90;;;;;;5097271;28;20557;-67
2022/11/15 07:46:05;;;;;;;38.60;26.77;;;7.60;99.90;;;;;;5095685;28;20514;-68
2022/11/15 07:48:32;;;;;;;39.17;27.97;;;7.60;99.90;;;;;;5096637;28;20449;-69
2022/11/15 07:50:59;;;;;;;39.53;25.90;;;7.70;99.90;;;;;;5096827;28;20840;-67
2022/11/15 07:53:26;;;;;;;38.67;26.90;;;7.70;99.90;;;;;;5096983;28;20468;-66
2022/11/15 07:55:54;;;;;;;39.30;27.00;;;7.80;99.90;;;;;;5096552;28;20497;-68
2022/11/15 07:58:21;;;;;;;36.83;25.70;;;7.80;99.90;;;;;;5096504;28;20519;-68
2022/11/15 08:00:48;;;;;;;41.53;26.80;;;7.80;99.90;;;;;;5096955;28;20477;-67
2022/11/15 08:03:16;;;;;;;41.37;27.50;;;7.80;99.90;;;;;;5095976;28;20457;-67
2022/11/15 08:05:44;;;;;;;38.40;25.73;;;7.90;99.90;;;;;;5095843;28;20596;-67
2022/11/15 08:08:12;;;;;;;41.67;28.23;;;7.90;99.90;;;;;;5095956;28;20453;-67
2022/11/15 08:10:39;;;;;;;39.20;25.53;;;8.00;99.90;;;;;;5096336;28;20564;-67
2022/11/15 08:13:10;;;;;;;35.80;25.90;;;8.00;99.90;;;;;;5096419;28;20771;-66
2022/11/15 08:15:37;;;;;;;39.10;25.87;;;8.10;99.90;;;;;;5096785;28;20962;-67
2022/11/15 08:18:10;;;;;;;42.20;25.90;;;8.20;99.90;;;;;;5096092;28;20449;-67
2022/11/15 08:20:37;;;;;;;39.90;28.20;;;8.20;99.90;;;;;;5095836;28;20448;-68
2022/11/15 08:23:05;;;;;;;41.43;25.67;;;8.30;99.90;;;;;;5095805;28;20458;-66
2022/11/15 08:25:33;;;;;;;38.50;28.17;;;8.30;99.90;;;;;;5095973;28;20477;-67
2022/11/15 08:28:02;;;;;;;35.60;25.27;;;8.40;99.90;;;;;;5096314;28;20552;-67
2022/11/15 08:30:31;;;;;;;37.80;24.80;;;8.50;99.90;;;;;;5096232;28;20647;-68
2022/11/15 08:32:59;;;;;;;35.23;25.23;;;8.60;99.90;;;;;;5095895;28;20818;-67
2022/11/15 08:35:26;;;;;;;37.50;24.20;;;8.60;99.90;;;;;;5095805;28;20518;-67
2022/11/15 08:37:54;;;;;;;33.53;24.63;;;8.60;99.90;;;;;;5096171;28;20496;-67
2022/11/15 08:40:22;;;;;;;33.80;24.40;;;8.60;99.90;;;;;;5095945;28;20777;-67
2022/11/15 08:42:49;;;;;;;41.13;25.13;;;8.60;99.90;;;;;;5096027;28;20465;-67
2022/11/15 08:45:16;;;;;;;30.03;23.00;;;8.70;99.90;;;;;;5096774;28;20457;-66
2022/11/15 08:47:45;;;;;;;34.73;21.10;;;8.80;99.90;;;;;;5095619;28;20536;-67
2022/11/15 08:50:12;;;;;;;36.93;23.97;;;8.90;99.90;;;;;;5096159;28;20572;-67
2022/11/15 08:52:39;;;;;;;36.73;23.43;;;9.00;99.90;;;;;;5096080;28;20461;-66
2022/11/15 08:55:07;;;;;;;30.70;22.47;;;9.00;99.90;;;;;;5096041;28;20454;-67
2022/11/15 08:57:34;;;;;;;30.90;21.23;;;9.10;99.90;;;;;;5095038;28;20511;-67
2022/11/15 09:00:01;;;;;;;33.40;22.73;;;9.10;99.90;;;;;;5095672;28;20575;-67
2022/11/15 09:02:28;;;;;;;31.60;20.60;;;9.20;99.90;;;;;;5095495;28;20510;-67
2022/11/15 09:04:56;;;;;;;35.87;24.43;;;9.20;99.90;;;;;;5095691;28;20518;-67
2022/11/15 09:07:23;;;;;;;33.33;23.50;;;9.20;99.90;;;;;;5095976;28;20453;-66
2022/11/15 09:09:50;;;;;;;31.80;22.80;;;9.20;99.90;;;;;;5095333;28;20554;-67
2022/11/15 09:12:17;;;;;;;31.30;21.70;;;9.20;99.90;;;;;;5095174;28;20483;-67
2022/11/15 09:14:44;;;;;;;36.83;22.03;;;9.30;99.90;;;;;;5096119;28;20564;-67
2022/11/15 09:17:11;;;;;;;33.87;24.30;;;9.30;99.90;;;;;;5095019;28;20500;-67
2022/11/15 09:19:38;;;;;;;32.93;23.70;;;9.40;99.90;;;;;;5095915;28;20959;-67
2022/11/15 09:22:08;;;;;;;33.80;23.10;;;9.40;99.90;;;;;;5096008;28;20559;-66
2022/11/15 09:24:35;;;;;;;29.87;22.67;;;9.40;99.90;;;;;;5095895;28;20978;-66
2022/11/15 09:27:02;;;;;;;28.77;21.30;;;9.40;99.90;;;;;;5094807;28;20576;-67
2022/11/15 09:29:29;;;;;;;27.33;21.00;;;9.50;99.90;;;;;;5095113;28;20467;-67
2022/11/15 09:31:56;;;;;;;32.27;21.73;;;9.60;99.90;;;;;;5095280;28;20477;-66
2022/11/15 09:34:23;;;;;;;31.53;21.93;;;9.60;99.90;;;;;;5094611;28;20492;-66
2022/11/15 09:36:50;;;;;;;34.07;22.13;;;9.70;99.90;;;;;;5095230;28;20514;-67
2022/11/15 09:39:18;;;;;;;33.50;24.07;;;9.80;99.90;;;;;;5094944;28;20489;-67
2022/11/15 09:42:08;;;;;;;30.97;23.27;;;9.90;99.90;;;;;;5095340;28;20457;-67
2022/11/15 09:44:57;;;;;;;27.30;20.83;;;10.00;99.90;;;;;;5095853;28;20763;-66
2022/11/15 09:47:50;;;;;;;29.30;20.50;;;10.10;99.90;;;;;;5095107;28;20528;-66
2022/11/15 09:50:31;;;;;;;29.50;21.37;;;10.20;99.90;;;;;;5095032;28;21003;-68
2022/11/15 09:52:59;;;;;;;34.60;20.50;;;10.20;99.90;;;;;;5094687;28;20510;-67
2022/11/15 09:55:41;;;;;;;26.60;19.33;;;10.30;99.90;;;;;;5095334;28;20732;-68
2022/11/15 09:58:17;;;;;;;28.70;18.93;;;10.40;99.90;;;;;;5094788;28;20438;-67
2022/11/15 10:00:48;;;;;;;26.43;18.80;;;10.50;99.90;;;;;;5095511;28;20437;-67
2022/11/15 10:03:17;;;;;;;23.93;18.40;;;10.60;99.90;;;;;;5097816;28;20448;-66
2022/11/15 10:05:46;;;;;;;23.33;16.93;;;10.70;99.90;;;;;;5096739;28;20457;-67
2022/11/15 10:08:28;;;;;;;23.47;17.10;;;10.70;99.90;;;;;;5095735;28;20457;-67
2022/11/15 10:10:59;;;;;;;22.77;16.87;;;10.70;99.90;;;;;;5098992;28;20525;-67
2022/11/15 10:13:29;;;;;;;22.17;16.60;;;10.80;99.90;;;;;;5098604;28;20438;-67
2022/11/15 10:16:08;;;;;;;22.80;16.97;;;10.80;99.90;;;;;;5098610;28;20522;-67
2022/11/15 10:18:36;;;;;;;21.87;16.07;;;10.90;99.90;;;;;;5099122;28;20437;-66
2022/11/15 10:21:16;;;;;;;23.37;17.33;;;11.00;99.90;;;;;;5099174;28;20492;-66
2022/11/15 10:23:43;;;;;;;18.73;15.90;;;11.10;99.90;;;;;;5098539;28;20437;-66
2022/11/15 10:26:15;;;;;;;24.17;16.63;;;11.20;99.90;;;;;;5098697;28;20484;-66
2022/11/15 10:28:42;;;;;;;21.13;17.23;;;11.20;99.90;;;;;;5098527;28;20495;-68
2022/11/15 10:31:24;;;;;;;19.00;16.03;;;11.30;99.90;;;;;;5099189;28;20527;-67
2022/11/15 10:33:57;;;;;;;20.50;15.57;;;11.40;99.90;;;;;;5099432;28;20499;-66
2022/11/15 10:36:25;;;;;;;21.23;15.80;;;11.50;99.90;;;;;;5098444;28;20473;-66
2022/11/15 10:38:54;;;;;;;22.93;15.63;;;11.60;99.90;;;;;;5099263;28;20931;-66
2022/11/15 10:41:31;;;;;;;19.30;15.20;;;11.70;99.90;;;;;;5098574;28;20515;-65
2022/11/15 10:44:23;;;;;;;20.93;16.57;;;11.90;99.90;;;;;;5098744;28;20497;-67
2022/11/15 10:47:06;;;;;;;21.73;17.63;;;12.00;99.90;;;;;;5098722;28;20528;-67
2022/11/15 10:49:34;;;;;;;22.30;15.80;;;12.10;99.90;;;;;;5099078;28;20898;-67
2022/11/15 10:52:05;;;;;;;20.00;16.17;;;12.20;99.90;;;;;;5098616;28;21038;-67
2022/11/15 10:54:40;;;;;;;23.73;16.07;;;12.30;99.90;;;;;;5099540;28;20445;-67
2022/11/15 10:57:13;;;;;;;21.47;16.00;;;12.40;99.90;;;;;;5100702;28;20527;-67
2022/11/15 10:59:43;;;;;;;22.90;16.30;;;12.40;99.90;;;;;;5099478;28;20445;-66
2022/11/15 11:02:29;;;;;;;21.63;15.30;;;12.60;99.90;;;;;;5098905;28;20461;-66
2022/11/15 11:04:56;;;;;;;20.73;16.17;;;12.70;99.90;;;;;;5098283;28;20953;-66
2022/11/15 11:07:25;;;;;;;24.47;16.73;;;12.70;99.90;;;;;;5098919;28;20481;-66
2022/11/15 11:10:00;;;;;;;22.67;17.07;;;12.80;99.90;;;;;;5099004;28;20457;-67
2022/11/15 11:12:33;;;;;;;28.30;18.40;;;12.90;99.90;;;;;;5098360;28;20756;-67
2022/11/15 11:15:03;;;;;;;23.17;18.03;;;13.10;99.90;;;;;;5098269;28;20469;-66
2022/11/15 11:17:44;;;;;;;23.33;17.00;;;13.10;99.90;;;;;;5098189;28;20464;-67
2022/11/15 11:20:21;;;;;;;20.73;16.17;;;13.10;99.90;;;;;;5097858;28;20841;-67
2022/11/15 11:23:01;;;;;;;22.17;16.63;;;13.20;99.90;;;;;;5097508;28;20434;-67
2022/11/15 11:25:35;;;;;;;18.70;15.60;;;13.20;99.90;;;;;;5097482;28;20506;-68
2022/11/15 11:28:19;;;;;;;22.43;17.20;;;13.20;99.90;;;;;;5097931;28;20436;-68
2022/11/15 11:30:58;;;;;;;19.83;15.83;;;13.30;99.90;;;;;;5097801;28;20461;-70
2022/11/15 11:33:32;;;;;;;25.10;15.70;;;13.40;99.90;;;;;;5097790;28;20864;-66
2022/11/15 11:36:09;;;;;;;19.07;15.90;;;13.50;99.90;;;;;;5098466;28;20488;-66
2022/11/15 11:38:54;;;;;;;21.00;15.80;;;13.60;99.90;;;;;;5097995;28;20823;-65
2022/11/15 11:41:48;;;;;;;23.90;15.90;;;13.80;99.90;;;;;;5097418;28;20438;-67
2022/11/15 11:44:44;;;;;;;20.50;16.77;;;14.00;99.90;;;;;;5084439;28;20465;-66
2022/11/15 11:47:12;;;;;;;19.27;15.07;;;14.10;99.90;;;;;;5097702;28;20820;-67
2022/11/15 11:49:46;;;;;;;19.47;15.30;;;14.20;99.90;;;;;;5097593;28;20510;-67
2022/11/15 11:52:18;;;;;;;22.00;15.37;;;14.60;99.90;;;;;;5097670;28;20522;-66
2022/11/15 11:54:56;;;;;;;19.20;15.20;;;15.40;99.90;;;;;;5098658;28;20472;-66
2022/11/15 11:57:33;;;;;;;19.17;14.57;;;16.50;99.90;;;;;;5097338;28;20507;-67
2022/11/15 12:00:05;;;;;;;16.70;14.03;;;17.70;99.90;;;;;;5097167;28;20507;-68
2022/11/15 12:02:37;;;;;;;15.73;14.00;;;19.20;99.90;;;;;;5096656;28;20530;-67
2022/11/15 12:05:11;;;;;;;16.93;13.50;;;20.60;99.90;;;;;;5096844;28;20437;-69
2022/11/15 12:07:40;;;;;;;22.80;17.30;;;21.40;99.90;;;;;;5096591;28;20446;-67
2022/11/15 12:10:17;;;;;;;16.50;12.63;;;22.00;99.90;;;;;;5096419;28;20453;-67
2022/11/15 12:12:51;;;;;;;14.63;12.47;;;22.50;99.90;;;;;;5096007;28;20494;-67
2022/11/15 12:15:23;;;;;;;14.97;12.77;;;23.40;99.90;;;;;;5096410;28;20630;-68
2022/11/15 12:17:50;;;;;;;17.50;13.73;;;24.20;95.80;;;;;;5096304;28;20841;-68
2022/11/15 12:20:20;;;;;;;15.03;13.47;;;24.30;91.90;;;;;;5096643;28;20551;-67
2022/11/15 12:22:54;;;;;;;15.80;14.30;;;24.60;88.70;;;;;;5097452;28;20522;-67
2022/11/15 12:25:26;;;;;;;13.47;12.07;;;24.30;81.90;;;;;;5096938;28;20867;-68
2022/11/15 12:27:58;;;;;;;18.03;15.63;;;24.10;84.70;;;;;;5096407;28;20441;-67
2022/11/15 12:30:30;;;;;;;15.47;13.30;;;24.30;1.00;;;;;;5096355;28;20480;-67
2022/11/15 12:33:00;;;;;;;16.13;13.13;;;24.40;1.00;;;;;;5094636;28;20538;-67
2022/11/15 12:35:33;;;;;;;15.57;12.97;;;24.50;1.00;;;;;;5095424;28;20445;-68
2022/11/15 12:38:00;;;;;;;21.27;12.90;;;24.80;1.00;;;;;;5094818;28;20608;-68
2022/11/15 12:40:36;;;;;;;18.10;13.17;;;25.20;1.00;;;;;;5094782;28;20897;-68
2022/11/15 12:43:26;;;;;;;13.17;11.77;;;25.40;1.00;;;;;;5095152;28;20510;-67
2022/11/15 12:45:54;;;;;;;14.23;12.67;;;25.20;1.00;;;;;;5095068;28;20529;-68
2022/11/15 12:48:47;;;;;;;15.83;12.30;;;25.20;1.00;;;;;;5094393;28;20540;-68
2022/11/15 12:51:14;;;;;;;14.93;11.90;;;25.20;1.00;;;;;;5095089;28;20549;-68
2022/11/15 12:53:41;;;;;;;18.10;13.63;;;25.20;1.00;;;;;;5094859;28;20598;-67
2022/11/15 12:56:23;;;;;;;20.10;15.07;;;25.60;1.00;;;;;;5095056;28;20625;-66
2022/11/15 12:58:53;;;;;;;15.20;13.70;;;25.90;1.00;;;;;;5094983;28;20897;-71
2022/11/15 13:01:54;;;;;;;14.73;13.10;;;26.10;1.00;;;;;;5094560;28;20453;-69
2022/11/15 13:04:28;;;;;;;14.90;11.93;;;26.40;1.00;;;;;;5094715;28;20890;-67